Dsw Inc-Class A (DSW) Latest Bloomsberg Price


Mffais Ranking #2120 Overall / #22 Industry
Industry: Specialty Apparel Stores

Number of Companies: 149 (Ranking #1176 Overall/#15 Industry)
Inflow: $ 90,395 (K) (Ranking #1007 Overall/#11 Industry)
Outflow: $ -115,050 (K)
Mffais Flow: $ -24,654 (K) (Ranking #2120 Overall/#22 Industry)


Receive a FREE weekly executive review of stocks moving into the top 10, taking the top industy spot or moving up within their industry. Sent directly to your Inbox every Saturday. Sign up today and get last week's review immediately sent to you.

We value and respect your privacy. Please read our Terms and Conditions which states our firm commitment to your privacy. Your email address will not be shared with a third party, nor will it be sold or used for purposes other than subscription for the weekly review.

Owner CPOR Shares Action Qty Chg Invested (K) Total Current Value (K)
Foresters Investment Management Company Inc 2016-09-30 944,900 New Holding 944,900 $ 22,923 $ 22,923
Mig Capital Llc 2016-09-30 1,397,000 Added More 412,000 $ 9,995 $ 33,891
Thrivent Financial For Lutherans 2016-09-30 255,820 New Holding 255,820 $ 6,206 $ 6,206
Capital Fund Management S A 2016-09-30 202,161 New Holding 202,161 $ 4,904 $ 4,904
Cubist Systematic Strategies Llc 2016-09-30 332,206 Added More 184,418 $ 4,473 $ 8,059
Clearline Capital Lp 2016-09-30 174,253 New Holding 174,253 $ 4,227 $ 4,227
Glg Partners Lp 2016-09-30 146,664 New Holding 146,664 $ 3,558 $ 3,558
Bluemountain Capital Management Llc 2016-09-30 136,241 New Holding 136,241 $ 3,305 $ 3,305
Arrowpoint Asset Management Llc 2016-09-30 1,930,205 Added More 106,854 $ 2,592 $ 46,826
Kennedy Capital Management Inc 2016-09-30 198,899 Added More 98,850 $ 2,398 $ 4,825
Cipher Capital Lp 2016-09-30 100,504 Added More 79,090 $ 1,918 $ 2,438
Investment Counselors Of Maryland Llc 2016-09-30 594,452 Added More 70,495 $ 1,710 $ 14,421
Lombardia Capital Partners Llc 2016-09-30 584,209 Added More 53,307 $ 1,293 $ 14,172
A R T Advisors Llc 2016-09-30 48,290 New Holding 48,290 $ 1,171 $ 1,171
Pacad Investment Ltd 2016-09-30 52,600 Added More 45,100 $ 1,094 $ 1,276
Gsa Capital Partners Llp 2016-09-30 44,292 New Holding 44,292 $ 1,074 $ 1,074
Dynamic Technology Lab Private Ltd 2016-09-30 43,148 New Holding 43,148 $ 1,046 $ 1,046
Kcg Holdings Inc 2016-09-30 38,491 New Holding 38,491 $ 933 $ 933
Engineers Gate Manager Lp 2016-09-30 70,500 Added More 37,221 $ 902 $ 1,710
Sg Americas Securities Llc 2016-09-30 36,840 New Holding 36,840 $ 893 $ 893
Trexquant Investment Lp 2016-09-30 34,400 New Holding 34,400 $ 834 $ 834
Marshall Wace Llp 2016-09-30 59,793 Added More 34,178 $ 829 $ 1,450
Bessemer Group Inc 2016-09-30 32,507 New Holding 32,507 $ 788 $ 788
Northern Trust Corp 2016-09-30 1,251,143 Added More 31,782 $ 771 $ 30,352
Guggenheim Capital Llc 2016-09-30 28,953 New Holding 28,953 $ 702 $ 702
Strs Ohio 2016-09-30 27,700 New Holding 27,700 $ 672 $ 672
Scotia Capital Inc 2016-09-30 27,405 New Holding 27,405 $ 664 $ 664
Raymond James Associates 2016-09-30 26,284 New Holding 26,284 $ 637 $ 637
Ahl Partners Llp 2016-09-30 25,828 New Holding 25,828 $ 626 $ 626
Parametric Portfolio Associates Llc 2016-09-30 121,580 Added More 25,196 $ 611 $ 2,949
Paragon Capital Management Llc 2016-09-30 433,878 Added More 20,658 $ 501 $ 10,525
Alambic Investment Management L P 2016-09-30 19,000 New Holding 19,000 $ 460 $ 460
Verition Fund Management Llc 2016-09-30 18,787 New Holding 18,787 $ 455 $ 455
Laurion Capital Management Lp 2016-09-30 18,000 New Holding 18,000 $ 436 $ 436
Legal General Group Plc 2016-09-30 49,081 Added More 17,356 $ 421 $ 1,190
Third Avenue Management Llc 2016-09-30 227,352 Added More 15,818 $ 383 $ 5,515
Quantbot Technologies Lp 2016-09-30 15,369 New Holding 15,369 $ 372 $ 372
Ft Options Llc 2016-09-30 30,000 Added More 15,000 $ 363 $ 727
Cantab Capital Partners Llp 2016-09-30 32,823 Added More 14,819 $ 359 $ 796
Tudor Investment Corp Et Al 2016-09-30 14,500 New Holding 14,500 $ 351 $ 351
Quantitative Investment Management Llc 2016-09-30 13,100 New Holding 13,100 $ 317 $ 317
Bbva Compass Bancshares Inc 2016-09-30 12,452 New Holding 12,452 $ 302 $ 302
Nisa Investment Advisors Llc 2016-09-30 35,104 Added More 8,992 $ 218 $ 851
Squarepoint Ops Llc 2016-09-30 18,900 Added More 6,700 $ 162 $ 458
Walleye Trading Llc 2016-09-30 60,136 Added More 6,307 $ 153 $ 1,458
Next Financial Group Inc 2016-09-30 6,000 New Holding 6,000 $ 145 $ 145
Smith Graham Co Investment Advisors Lp 2016-09-30 178,480 Added More 4,990 $ 121 $ 4,329
Howard Hughes Medical Institute 2016-09-30 26,347 Added More 4,573 $ 110 $ 639
Simplex Trading Llc 2016-09-30 4,215 New Holding 4,215 $ 102 $ 102
Rhumbline Advisers 2016-09-30 86,855 Added More 3,707 $ 89 $ 2,107
Pnc Financial Services Group Inc 2016-09-30 7,200 Added More 3,600 $ 87 $ 174
First American Bank 2016-09-30 108,773 Added More 3,224 $ 78 $ 2,638
Fiera Capital Corp 2016-09-30 107,100 Added More 3,200 $ 77 $ 2,598
M T Bank Corp 2016-09-30 196,930 Added More 3,193 $ 77 $ 4,777
Sei Investments Co 2016-09-30 22,862 Added More 2,958 $ 71 $ 554
Qs Investors Llc 2016-09-30 15,927 Added More 2,225 $ 53 $ 386
Nationwide Fund Advisors 2016-09-30 71,617 Added More 2,185 $ 53 $ 1,737
Fenimore Asset Management Inc 2016-09-30 1,397,157 Added More 2,125 $ 51 $ 33,895
Eagle Boston Investment Management Inc 2016-09-30 242,493 Added More 1,918 $ 46 $ 5,882
Us Bancorp De 2016-09-30 4,268 Added More 1,436 $ 34 $ 103
Vident Investment Advisory Llc 2016-09-30 45,620 Added More 1,313 $ 31 $ 1,106
California State Teachers Retirement System 2016-09-30 142,438 Added More 1,300 $ 31 $ 3,455
Teachers Advisors Inc 2016-09-30 121,476 Added More 1,158 $ 28 $ 2,947
Point72 Asia Hong Kong Ltd 2016-09-30 800 New Holding 800 $ 19 $ 19
Hightower Advisors Llc 2016-09-30 30,373 Added More 468 $ 11 $ 736
Afam Capital Inc 2016-09-30 102,994 Added More 442 $ 10 $ 2,498
I G Investment Management Ltd 2016-09-30 37,708 Added More 350 $ 8 $ 914
Ladenburg Thalmann Financial Services Inc 2016-09-30 2,072 Added More 312 $ 7 $ 50
Zurcher Kantonalbank Zurich Cantonalbank 2016-09-30 2,129 Added More 277 $ 6 $ 51
Msi Financial Services Inc 2016-09-30 6,703 Added More 190 $ 4 $ 162
Fny Managed Accounts Llc 2016-09-30 150 New Holding 150 $ 3 $ 3
Global X Management Co Llc 2016-09-30 344 Added More 86 $ 2 $ 8
Creative Planning 2016-09-30 373 Added More 73 $ 1 $ 9
American International Group Inc 2016-09-30 38,806 Added More 59 $ 1 $ 941
Ifp Advisors Inc 2016-09-30 1,157 Added More 57 $ 1 $ 28
Advisory Services Network Llc 2016-09-30 206 Added More 1 $ 0 $ 4
Investors Asset Management Of Georgia Inc Ga Adv 2016-09-30 17,240 No Change 0 $ 0 $ 418
Teachers Retirement System Of The State Of Kentucky 2016-09-30 31,936 No Change 0 $ 0 $ 774
Howe Rusling Inc 2016-09-30 604 No Change 0 $ 0 $ 14
Ws Management Lllp 2016-09-30 832,100 No Change 0 $ 0 $ 20,186
Panagora Asset Management Inc 2016-09-30 4,355 No Change 0 $ 0 $ 105
Dubuque Bank Trust Co 2016-09-30 200 No Change 0 $ 0 $ 4
Paradigm Capital Management Inc Ny 2016-09-30 11,200 No Change 0 $ 0 $ 271
Ledyard National Bank 2016-09-30 380 No Change 0 $ 0 $ 9
Penbrook Management Llc 2016-09-30 23,995 No Change 0 $ 0 $ 582
Americafirst Capital Management Llc 2016-09-30 5,064 No Change 0 $ 0 $ 122
Gradient Investments Llc 2016-09-30 83 No Change 0 $ 0 $ 2
Newsquare Capital Llc 2016-09-30 600 No Change 0 $ 0 $ 14
Winfield Associates Inc 2016-09-30 25 No Change 0 $ 0 $ 0
Fifth Third Bancorp 2016-09-30 471 Sold Some -21 $ -0 $ 11
Checchi Capital Advisers Llc 2016-09-30 0 Sold All -115 $ -2 $ 0
Advisors Asset Management Inc 2016-09-30 2,502 Sold Some -271 $ -6 $ 60
Airain Ltd 2016-09-30 45,799 Sold Some -353 $ -8 $ 1,111
Advisor Group Inc 2016-09-30 1,554 Sold Some -604 $ -14 $ 37
Hsbc Holdings Plc 2016-09-30 11,560 Sold Some -646 $ -15 $ 280
Johnson Financial Group Inc 2016-09-30 0 Sold All -775 $ -18 $ 0
Horizon Kinetics Llc 2016-09-30 19,098 Sold Some -1,453 $ -35 $ 463
Shufro Rose Co Llc 2016-09-30 91,990 Sold Some -1,590 $ -38 $ 2,231
Tower Research Capital Llc Trc 2016-09-30 1,093 Sold Some -2,258 $ -54 $ 26
Foundry Partners Llc 2016-09-30 12,875 Sold Some -2,450 $ -59 $ 312
Aperio Group Llc 2016-09-30 67,685 Sold Some -3,320 $ -80 $ 1,642
Rockshelter Capital Management Llc 2016-09-30 177,340 Sold Some -3,480 $ -84 $ 4,302
United Services Automobile Association 2016-09-30 716,660 Sold Some -3,800 $ -92 $ 17,386
Princeton Alpha Management Lp 2016-09-30 27,182 Sold Some -5,396 $ -130 $ 659
Dean Capital Management 2016-09-30 51,925 Sold Some -5,765 $ -139 $ 1,259
Cutler Group Lp 2016-09-30 11,244 Sold Some -6,600 $ -160 $ 272
Systematic Financial Management Lp 2016-09-30 75,965 Sold Some -8,185 $ -198 $ 1,842
Blackrock Investment Management Llc 2016-09-30 278,000 Sold Some -8,286 $ -201 $ 6,744
Parkwood Llc 2016-09-30 11,874 Sold Some -9,550 $ -231 $ 288
Essex Investment Management Co Llc 2016-09-30 0 Sold All -9,949 $ -241 $ 0
Pitcairn Co 2016-09-30 0 Sold All -10,163 $ -246 $ 0
Teacher Retirement System Of Texas 2016-09-30 0 Sold All -10,468 $ -253 $ 0
Spot Trading L L C 2016-09-30 33,037 Sold Some -10,546 $ -255 $ 801
Stonebridge Capital Management Inc 2016-09-30 0 Sold All -11,250 $ -272 $ 0
Blackrock Inc 2016-09-30 20,072 Sold Some -11,609 $ -281 $ 486
Group One Trading L P 2016-09-30 217 Sold Some -12,208 $ -296 $ 5
Quinn Opportunity Partners Llc 2016-09-30 67,526 Sold Some -12,474 $ -302 $ 1,638
1st Global Advisors Inc 2016-09-30 0 Sold All -13,051 $ -316 $ 0
Swiss National Bank 2016-09-30 114,400 Sold Some -13,500 $ -327 $ 2,775
Mariner Wealth Advisors Llc 2016-09-30 0 Sold All -15,100 $ -366 $ 0
Clinton Group Inc 2016-09-30 40,275 Sold Some -16,080 $ -390 $ 977
Cornerstone Capital Management Holdings Llc 2016-09-30 0 Sold All -18,702 $ -453 $ 0
Eulav Asset Management 2016-09-30 0 Sold All -22,000 $ -533 $ 0
Ramsey Quantitative Systems 2016-09-30 0 Sold All -22,260 $ -540 $ 0
Jane Street Group Llc 2016-09-30 0 Sold All -28,514 $ -691 $ 0
Omers Administration Corp 2016-09-30 0 Sold All -29,400 $ -713 $ 0
First Mercantile Trust Co 2016-09-30 0 Sold All -34,570 $ -838 $ 0
Dimensional Fund Advisors Lp 2016-09-30 3,007,803 Sold Some -39,483 $ -957 $ 72,969
Hawk Ridge Capital Management Lp 2016-09-30 287,623 Sold Some -43,000 $ -1,043 $ 6,977
Centaur Capital Partners L P 2016-09-30 0 Sold All -43,500 $ -1,055 $ 0
Dean Investment Associates Llc 2016-09-30 120,120 Sold Some -46,195 $ -1,120 $ 2,914
Olstein Capital Management L P 2016-09-30 495,480 Sold Some -71,225 $ -1,727 $ 12,020
Royce Associates Lp 2016-09-30 2,413,929 Sold Some -82,147 $ -1,992 $ 58,561
Weiss Multi-Strategy Advisers Llc 2016-09-30 0 Sold All -88,925 $ -2,157 $ 0
Pekin Singer Strauss Asset Management Il 2016-09-30 506,862 Sold Some -90,752 $ -2,201 $ 12,296
Putnam Investments Llc 2016-09-30 0 Sold All -93,529 $ -2,269 $ 0
First Quadrant L P Ca 2016-09-30 26,000 Sold Some -106,000 $ -2,571 $ 630
Peak6 Investments L P 2016-09-30 42,600 Sold Some -109,623 $ -2,659 $ 1,033
Emerald Acquisition Ltd 2016-09-30 151,810 Sold Some -135,215 $ -3,280 $ 3,682
New York State Common Retirement Fund 2016-09-30 143,920 Sold Some -144,315 $ -3,501 $ 3,491
Wasatch Advisors Inc 2016-09-30 0 Sold All -198,381 $ -4,812 $ 0
Landscape Capital Management L L C 2016-09-30 0 Sold All -211,871 $ -5,139 $ 0
Cambiar Investors Llc 2016-09-30 1,080,634 Sold Some -258,590 $ -6,273 $ 26,216
Brandywine Global Investment Management Llc 2016-09-30 253,683 Sold Some -269,197 $ -6,530 $ 6,154
J Goldman Co Lp 2016-09-30 0 Sold All -269,900 $ -6,547 $ 0
Frontier Capital Management Co Llc 2016-09-30 1,071,101 Sold Some -284,685 $ -6,906 $ 25,984
Tradewinds Global Investors Llc 2016-09-30 36,702 Sold Some -520,602 $ -12,629 $ 890
Btim Corp 2016-09-30 0 Sold All -592,487 $ -14,373 $ 0
Greenlight Capital Inc 2016-09-30 3,574,000 Sold Some -676,000 $ -16,399 $ 86,705